Time;durP1;ratioP1;P1;durP2;ratioP2;P2;SDS_P1;SDS_P2;PMS_P1;PMS_P2;Temp;Humidity;BMP_temperature;BMP_pressure;BME280_temperature;BME280_humidity;BME280_pressure;Samples;Min_cycle;Max_cycle;Signal;HPM_P1;HPM_P2
2022/08/06 00:02:15;;;;;;;7.65;4.30;;;;;;;21.68;49.49;93799.09;5122996;28;20011;-75
2022/08/06 00:04:40;;;;;;;7.72;3.92;;;;;;;21.64;49.57;93811.88;5124037;28;20023;-75
2022/08/06 00:07:05;;;;;;;5.45;3.80;;;;;;;21.61;49.54;93807.22;5126899;28;20035;-75
2022/08/06 00:09:32;;;;;;;5.82;3.88;;;;;;;21.55;49.35;93808.75;5127045;28;20367;-75
2022/08/06 00:12:02;;;;;;;6.45;4.00;;;;;;;21.50;50.19;93811.84;5126720;28;20057;-75
2022/08/06 00:14:28;;;;;;;9.85;4.07;;;;;;;21.44;50.18;93819.56;5126621;28;20092;-75
2022/08/06 00:16:54;;;;;;;5.13;3.55;;;;;;;21.33;50.23;93810.59;5126584;28;20380;-75
2022/08/06 00:19:19;;;;;;;6.40;3.63;;;;;;;21.30;50.10;93819.50;5126837;28;20024;-75
2022/08/06 00:21:45;;;;;;;4.95;3.63;;;;;;;21.28;50.30;93817.16;5126580;28;20125;-75
2022/08/06 00:24:12;;;;;;;8.13;4.13;;;;;;;21.15;50.60;93810.53;5126668;28;20094;-75
2022/08/06 00:26:38;;;;;;;6.50;3.90;;;;;;;21.06;51.05;93810.88;5126287;28;20053;-75
2022/08/06 00:29:05;;;;;;;5.10;3.60;;;;;;;21.10;51.47;93816.31;5126755;28;20027;-75
2022/08/06 00:31:31;;;;;;;8.48;3.88;;;;;;;21.06;51.09;93818.25;5126483;27;20034;-75
2022/08/06 00:33:57;;;;;;;12.18;3.97;;;;;;;20.93;51.02;93810.44;5126304;28;20034;-75
2022/08/06 00:36:27;;;;;;;10.73;4.50;;;;;;;20.95;51.53;93815.50;5126373;28;20023;-75
2022/08/06 00:38:52;;;;;;;8.30;3.50;;;;;;;20.94;52.01;93820.09;5126250;28;20020;-76
2022/08/06 00:41:19;;;;;;;5.95;4.00;;;;;;;20.94;51.95;93813.91;5126276;28;20087;-76
2022/08/06 00:43:45;;;;;;;7.70;3.65;;;;;;;20.92;51.88;93808.88;5126274;28;20020;-76
2022/08/06 00:46:10;;;;;;;5.72;3.95;;;;;;;20.85;51.71;93806.16;5126195;28;20149;-76
2022/08/06 00:48:35;;;;;;;7.22;4.28;;;;;;;20.83;51.67;93808.47;5125948;28;20252;-76
2022/08/06 00:51:01;;;;;;;5.72;4.05;;;;;;;20.80;52.12;93812.72;5126273;28;20069;-76
2022/08/06 00:53:27;;;;;;;6.25;4.13;;;;;;;20.79;52.47;93810.38;5126098;28;20039;-76
2022/08/06 00:55:52;;;;;;;7.05;4.13;;;;;;;20.76;51.99;93809.19;5125897;28;20024;-76
2022/08/06 00:58:18;;;;;;;8.55;3.72;;;;;;;20.75;52.05;93815.00;5125903;28;20318;-76
2022/08/06 01:00:43;;;;;;;9.13;3.85;;;;;;;20.71;51.92;93819.63;5125967;28;20047;-76
2022/08/06 01:03:10;;;;;;;5.65;3.35;;;;;;;20.72;52.32;93813.81;5125998;28;20256;-76
2022/08/06 01:05:36;;;;;;;7.32;3.75;;;;;;;20.69;52.13;93814.56;5125711;28;20035;-75
2022/08/06 01:08:02;;;;;;;9.68;4.10;;;;;;;20.67;52.57;93819.59;5125768;28;20347;-75
2022/08/06 01:10:28;;;;;;;8.07;4.40;;;;;;;20.62;52.63;93822.66;5125612;28;20059;-75
2022/08/06 01:12:53;;;;;;;5.65;4.20;;;;;;;20.57;52.25;93812.91;5125624;28;20028;-76
2022/08/06 01:15:19;;;;;;;6.57;3.42;;;;;;;20.59;52.55;93813.34;5125626;28;20095;-75
2022/08/06 01:18:03;;;;;;;4.97;3.58;;;;;;;20.56;52.52;93810.59;5124578;28;20067;-76
2022/08/06 01:21:18;;;;;;;6.15;3.80;;;;;;;20.48;52.89;93811.72;5125434;28;20091;-76
2022/08/06 01:23:57;;;;;;;8.27;4.10;;;;;;;20.44;52.82;93814.38;5125458;28;20023;-75
2022/08/06 01:26:49;;;;;;;5.72;3.78;;;;;;;20.45;53.37;93815.94;5125383;28;20027;-75
2022/08/06 01:29:36;;;;;;;6.47;4.22;;;;;;;20.43;53.31;93810.91;5125266;28;20081;-75
2022/08/06 01:32:06;;;;;;;4.78;3.53;;;;;;;20.42;53.33;93811.28;5125488;28;20031;-75
2022/08/06 01:34:47;;;;;;;6.05;3.88;;;;;;;20.35;53.50;93811.22;5125361;28;20086;-75
2022/08/06 01:37:22;;;;;;;8.95;3.83;;;;;;;20.32;53.54;93801.16;5125300;27;20085;-75
2022/08/06 01:39:52;;;;;;;5.40;3.97;;;;;;;20.33;53.79;93802.69;5125092;28;20028;-76
2022/08/06 01:42:20;;;;;;;9.15;4.30;;;;;;;20.31;53.62;93805.00;5124852;28;20023;-76
2022/08/06 01:44:48;;;;;;;5.32;3.40;;;;;;;20.29;53.26;93801.91;5125196;28;20027;-76
2022/08/06 01:47:16;;;;;;;6.32;4.18;;;;;;;20.27;53.95;93809.63;5124933;28;20027;-76
2022/08/06 01:49:46;;;;;;;5.80;3.80;;;;;;;20.24;54.03;93814.63;5125040;28;20272;-76
2022/08/06 01:52:12;;;;;;;5.30;3.70;;;;;;;20.22;53.91;93798.00;5124668;28;20027;-76
2022/08/06 01:54:42;;;;;;;5.55;4.00;;;;;;;20.17;53.60;93803.75;5124840;28;20069;-76
2022/08/06 01:57:10;;;;;;;7.72;4.07;;;;;;;20.11;53.76;93805.25;5124835;28;20187;-76
2022/08/06 01:59:42;;;;;;;7.47;4.10;;;;;;;20.10;54.17;93806.41;5124881;28;20019;-76
2022/08/06 02:02:12;;;;;;;8.80;4.35;;;;;;;20.08;54.26;93802.53;5124699;28;20065;-76
2022/08/06 02:04:40;;;;;;;5.15;3.92;;;;;;;20.06;54.51;93802.88;5124617;28;20069;-76
2022/08/06 02:07:09;;;;;;;8.18;3.88;;;;;;;20.06;53.83;93799.41;5124590;28;20065;-76
2022/08/06 02:09:36;;;;;;;11.43;4.53;;;;;;;20.03;54.33;93792.84;5124606;27;20023;-76
2022/08/06 02:12:13;;;;;;;9.63;4.55;;;;;;;20.01;54.23;93787.78;5124571;28;20086;-76
2022/08/06 02:14:48;;;;;;;10.63;4.22;;;;;;;19.97;54.60;93788.91;5124513;27;20051;-75
2022/08/06 02:17:17;;;;;;;5.70;4.05;;;;;;;19.96;55.03;93790.06;5124241;28;20035;-76
2022/08/06 02:19:49;;;;;;;5.22;3.50;;;;;;;19.95;54.75;93778.47;5124334;28;20023;-75
2022/08/06 02:22:15;;;;;;;5.75;4.10;;;;;;;19.93;54.82;93785.41;5124366;28;20087;-75
2022/08/06 02:24:42;;;;;;;7.85;3.75;;;;;;;19.90;55.01;93783.44;5124222;28;20023;-75
2022/08/06 02:27:09;;;;;;;6.30;3.85;;;;;;;19.80;55.56;93774.88;5124251;28;20032;-75
2022/08/06 02:29:36;;;;;;;5.97;4.38;;;;;;;19.80;55.55;93771.38;5124243;28;20091;-75
2022/08/06 02:32:02;;;;;;;8.60;3.88;;;;;;;19.80;55.48;93776.78;5124327;28;20199;-75
2022/08/06 02:34:28;;;;;;;4.90;3.70;;;;;;;19.80;55.20;93776.78;5124028;28;20030;-75
2022/08/06 02:37:02;;;;;;;6.45;4.35;;;;;;;19.76;55.59;93779.47;5124107;28;20027;-75
2022/08/06 02:39:35;;;;;;;6.55;4.43;;;;;;;19.75;55.65;93780.59;5124099;28;20196;-75
2022/08/06 02:42:19;;;;;;;5.40;3.75;;;;;;;19.72;55.44;93777.88;5123827;28;20217;-75
2022/08/06 02:44:47;;;;;;;6.53;3.95;;;;;;;19.70;55.95;93774.72;5123781;28;20030;-75
2022/08/06 02:47:20;;;;;;;8.70;4.82;;;;;;;19.69;55.86;93782.06;5123880;28;20259;-75
2022/08/06 02:49:50;;;;;;;7.03;4.28;;;;;;;19.68;54.84;93775.09;5123892;28;20308;-76
2022/08/06 02:52:35;;;;;;;11.52;4.18;;;;;;;19.67;54.01;93776.25;5123631;28;20051;-75
2022/08/06 02:55:07;;;;;;;9.35;4.07;;;;;;;19.67;54.30;93773.56;5123669;28;20023;-75
2022/08/06 02:57:38;;;;;;;8.25;4.55;;;;;;;19.65;54.06;93782.03;5123839;28;20221;-75
2022/08/06 03:00:08;;;;;;;13.25;4.93;;;;;;;19.64;55.44;93793.22;5123634;28;20063;-75
2022/08/06 03:02:36;;;;;;;8.77;5.25;;;;;;;19.60;55.85;93789.69;5123750;28;20302;-75
2022/08/06 03:05:04;;;;;;;8.43;4.93;;;;;;;19.55;55.74;93792.75;5123670;28;20424;-76
2022/08/06 03:07:32;;;;;;;8.43;4.28;;;;;;;19.55;55.22;93792.75;5123454;28;20015;-75
2022/08/06 03:10:00;;;;;;;6.60;4.22;;;;;;;19.56;55.42;93789.69;5123271;28;20022;-75
2022/08/06 03:12:26;;;;;;;8.68;4.78;;;;;;;19.56;55.80;93800.50;5123250;28;20027;-76
2022/08/06 03:14:53;;;;;;;5.35;3.80;;;;;;;19.55;56.45;93795.47;5123395;28;20053;-75
2022/08/06 03:17:20;;;;;;;7.53;4.00;;;;;;;19.48;56.66;93793.47;5123134;28;20089;-75
2022/08/06 03:19:47;;;;;;;6.05;3.90;;;;;;;19.47;56.96;93808.13;5123315;28;20019;-75
2022/08/06 03:22:17;;;;;;;5.45;3.78;;;;;;;19.45;57.38;93800.38;5123236;28;20043;-75
2022/08/06 03:24:45;;;;;;;7.90;4.15;;;;;;;19.43;57.23;93808.06;5123333;28;20027;-75
2022/08/06 03:27:12;;;;;;;7.78;4.10;;;;;;;19.40;57.50;93808.06;5123271;28;20066;-75
2022/08/06 03:29:42;;;;;;;7.63;3.78;;;;;;;19.36;57.64;93802.59;5123398;28;20023;-75
2022/08/06 03:32:08;;;;;;;7.35;4.28;;;;;;;19.32;58.03;93801.78;5123228;28;20020;-75
2022/08/06 03:34:34;;;;;;;8.27;4.05;;;;;;;19.33;57.60;93802.56;5123452;28;20024;-76
2022/08/06 03:37:01;;;;;;;5.32;3.85;;;;;;;19.32;57.71;93804.50;5123039;28;20031;-76
2022/08/06 03:39:30;;;;;;;5.15;3.65;;;;;;;19.31;57.60;93804.84;5124015;28;20015;-76
2022/08/06 03:41:56;;;;;;;7.53;3.63;;;;;;;19.30;58.08;93803.31;5127207;28;20060;-76
2022/08/06 03:44:22;;;;;;;8.18;3.97;;;;;;;19.28;58.12;93795.56;5127363;28;20023;-75
2022/08/06 03:47:00;;;;;;;10.63;4.15;;;;;;;19.27;58.25;93802.09;5127334;28;20039;-76
2022/08/06 03:49:57;;;;;;;5.85;3.78;;;;;;;19.26;58.24;93805.97;5127151;28;20256;-76
2022/08/06 03:52:26;;;;;;;5.03;3.72;;;;;;;19.23;58.76;93812.09;5122517;28;20055;-76
2022/08/06 03:54:55;;;;;;;7.55;3.63;;;;;;;19.25;58.98;93807.09;5126988;28;20069;-76
2022/08/06 03:57:26;;;;;;;10.70;3.55;;;;;;;19.27;58.86;93809.44;5127076;28;20019;-76
2022/08/06 03:59:58;;;;;;;5.43;4.05;;;;;;;19.29;59.16;93810.63;5127033;28;20377;-75
2022/08/06 04:02:28;;;;;;;9.48;4.57;;;;;;;19.31;59.32;93807.56;5127004;28;20019;-75
2022/08/06 04:04:54;;;;;;;7.38;4.32;;;;;;;19.34;59.61;93799.50;5126647;28;20019;-76
2022/08/06 04:07:20;;;;;;;7.00;4.32;;;;;;;19.37;59.13;93803.38;5126765;28;20076;-76
2022/08/06 04:09:46;;;;;;;10.80;4.22;;;;;;;19.41;59.75;93815.00;5126851;28;20313;-76
2022/08/06 04:12:11;;;;;;;7.93;4.90;;;;;;;19.44;59.85;93815.03;5126830;27;20274;-76
2022/08/06 04:14:37;;;;;;;5.53;4.13;;;;;;;19.49;60.31;93815.84;5126802;28;20022;-76
2022/08/06 04:17:04;;;;;;;9.45;4.68;;;;;;;19.53;60.64;93817.44;5126564;28;20275;-75
2022/08/06 04:19:31;;;;;;;10.18;5.15;;;;;;;19.56;60.27;93822.13;5126531;28;20044;-75
2022/08/06 04:21:56;;;;;;;7.10;5.25;;;;;;;19.60;57.31;93820.22;5126526;28;20050;-75
2022/08/06 04:24:22;;;;;;;7.50;5.28;;;;;;;19.65;56.51;93829.94;5126623;28;20019;-75
2022/08/06 04:26:51;;;;;;;8.30;5.22;;;;;;;19.73;56.32;93820.00;5126315;27;20019;-75
2022/08/06 04:29:18;;;;;;;6.55;4.32;;;;;;;19.82;55.56;93829.38;5126488;28;20194;-75
2022/08/06 04:31:46;;;;;;;7.57;5.32;;;;;;;19.91;54.37;93823.63;5126359;27;20306;-75
2022/08/06 04:34:15;;;;;;;11.93;5.05;;;;;;;19.93;54.03;93834.88;5126387;28;20087;-76
2022/08/06 04:36:41;;;;;;;12.50;5.22;;;;;;;19.96;53.99;93833.34;5126156;28;20051;-75
2022/08/06 04:39:07;;;;;;;8.45;4.97;;;;;;;20.02;53.67;93835.31;5126516;28;20023;-75
2022/08/06 04:41:33;;;;;;;7.28;4.90;;;;;;;20.12;53.29;93833.84;5126190;28;20020;-75
2022/08/06 04:43:59;;;;;;;11.18;5.20;;;;;;;20.17;52.90;93830.81;5126172;28;20023;-75
2022/08/06 04:46:24;;;;;;;9.13;4.85;;;;;;;20.24;52.87;93833.56;5126129;28;20024;-75
2022/08/06 04:48:50;;;;;;;5.95;4.35;;;;;;;20.32;53.26;93834.41;5125959;28;20360;-75
2022/08/06 04:51:15;;;;;;;16.70;5.50;;;;;;;20.38;53.41;93837.56;5124555;28;20201;-75
2022/08/06 04:53:41;;;;;;;8.43;4.93;;;;;;;20.34;53.06;93847.56;5126025;28;20022;-75
2022/08/06 04:56:08;;;;;;;9.57;5.22;;;;;;;20.37;52.07;93838.69;5126083;28;20035;-75
2022/08/06 04:58:34;;;;;;;7.57;4.68;;;;;;;20.39;51.96;93841.78;5125816;28;20052;-75
2022/08/06 05:01:01;;;;;;;8.30;4.63;;;;;;;20.38;51.67;93853.78;5125601;28;20035;-75
2022/08/06 05:03:27;;;;;;;8.25;5.38;;;;;;;20.41;52.10;93851.13;5125822;28;20038;-75
2022/08/06 05:06:02;;;;;;;11.63;5.50;;;;;;;20.48;52.38;93850.38;5125728;28;20214;-75
2022/08/06 05:08:30;;;;;;;9.95;5.40;;;;;;;20.56;52.42;93849.28;5125517;28;20038;-76
2022/08/06 05:11:08;;;;;;;10.70;5.03;;;;;;;20.57;52.37;93855.47;5125443;27;20367;-75
2022/08/06 05:13:37;;;;;;;11.60;5.75;;;;;;;20.60;52.14;93850.09;5125561;27;20031;-75
2022/08/06 05:16:06;;;;;;;7.22;5.28;;;;;;;20.74;53.07;93857.56;5125466;28;20332;-75
2022/08/06 05:18:49;;;;;;;13.38;4.93;;;;;;;20.81;51.80;93846.75;5125211;28;20052;-75
2022/08/06 05:21:20;;;;;;;9.05;4.70;;;;;;;20.89;51.18;93849.50;5125400;28;20028;-75
2022/08/06 05:23:49;;;;;;;10.35;4.93;;;;;;;20.98;50.64;93848.00;5125344;28;20023;-75
2022/08/06 05:26:15;;;;;;;9.27;5.43;;;;;;;21.07;50.51;93847.66;5125260;28;20305;-75
2022/08/06 05:28:42;;;;;;;11.32;5.78;;;;;;;21.13;50.69;93845.38;5125498;27;20350;-75
2022/08/06 05:31:08;;;;;;;13.43;5.50;;;;;;;21.16;50.42;93841.91;5125299;28;20032;-75
2022/08/06 05:33:38;;;;;;;11.02;4.72;;;;;;;21.25;50.42;93847.75;5125299;28;20333;-75
2022/08/06 05:36:09;;;;;;;10.18;5.35;;;;;;;21.31;50.04;93854.38;5124039;28;20267;-75
2022/08/06 05:38:37;;;;;;;10.50;5.55;;;;;;;21.34;50.32;93852.81;5125080;28;20054;-76
2022/08/06 05:41:10;;;;;;;9.88;5.20;;;;;;;21.34;50.09;93852.81;5124954;28;20103;-76
2022/08/06 05:43:37;;;;;;;9.70;5.40;;;;;;;21.39;49.66;93847.81;5124917;28;20031;-76
2022/08/06 05:46:15;;;;;;;6.18;4.47;;;;;;;21.47;48.00;93854.03;5124926;28;20066;-76
2022/08/06 05:48:54;;;;;;;18.55;5.18;;;;;;;21.54;49.26;93856.03;5125058;28;20299;-76
2022/08/06 05:51:25;;;;;;;8.15;4.88;;;;;;;21.55;49.18;93847.47;5123558;28;20254;-76
2022/08/06 05:53:59;;;;;;;8.82;4.93;;;;;;;21.68;49.77;93856.06;5124973;28;20031;-76
2022/08/06 05:56:31;;;;;;;17.42;5.63;;;;;;;21.74;49.60;93843.69;5124783;28;20103;-76
2022/08/06 05:59:07;;;;;;;9.50;5.75;;;;;;;21.79;49.63;93847.94;5123381;28;20031;-76
2022/08/06 06:01:35;;;;;;;9.35;6.30;;;;;;;21.85;49.50;93854.53;5124647;28;20302;-76
2022/08/06 06:04:02;;;;;;;9.10;5.82;;;;;;;21.88;49.64;93858.41;5124349;28;20245;-76
2022/08/06 06:06:28;;;;;;;8.20;5.82;;;;;;;21.83;49.50;93852.19;5124600;27;20024;-76
2022/08/06 06:08:53;;;;;;;16.25;6.05;;;;;;;21.96;48.88;93851.84;5124376;28;20371;-76
2022/08/06 06:11:19;;;;;;;8.90;6.32;;;;;;;22.06;50.24;93851.06;5124151;27;20028;-76
2022/08/06 06:13:46;;;;;;;10.80;6.03;;;;;;;22.09;49.40;93853.03;5124583;28;20102;-76
2022/08/06 06:16:24;;;;;;;25.63;6.13;;;;;;;22.13;48.60;93842.19;5124305;28;20027;-76
2022/08/06 06:19:04;;;;;;;13.60;6.07;;;;;;;22.11;48.81;93848.00;5124145;28;20043;-76
2022/08/06 06:21:35;;;;;;;9.25;5.80;;;;;;;22.26;48.51;93845.31;5123200;28;20015;-76
2022/08/06 06:24:13;;;;;;;8.90;5.50;;;;;;;22.34;48.48;93842.19;5124249;28;20019;-76
2022/08/06 06:26:57;;;;;;;13.13;6.43;;;;;;;22.36;48.80;93845.31;5124428;28;20233;-76
2022/08/06 06:29:40;;;;;;;10.60;6.18;;;;;;;22.47;49.15;93841.81;5123989;28;20335;-76
2022/08/06 06:32:28;;;;;;;13.77;6.28;;;;;;;22.58;48.46;93837.91;5123939;28;20288;-76
2022/08/06 06:35:24;;;;;;;10.43;6.68;;;;;;;22.66;48.58;93840.66;5123940;28;20042;-76
2022/08/06 06:38:03;;;;;;;15.55;5.38;;;;;;;22.75;48.88;93838.28;5122724;28;20047;-76
2022/08/06 06:40:50;;;;;;;15.07;6.65;;;;;;;22.86;47.92;93832.81;5123859;28;20019;-75
2022/08/06 06:43:44;;;;;;;13.45;5.30;;;;;;;22.96;48.24;93832.81;5123818;28;20026;-75
2022/08/06 06:46:20;;;;;;;13.10;5.78;;;;;;;23.03;47.37;93838.25;5123599;28;20098;-75
2022/08/06 06:49:01;;;;;;;10.32;6.35;;;;;;;23.08;47.38;93831.66;5123936;28;20225;-76
2022/08/06 06:51:44;;;;;;;9.25;5.32;;;;;;;23.17;47.64;93831.22;5123698;28;20032;-76
2022/08/06 06:54:18;;;;;;;8.20;5.57;;;;;;;23.29;47.70;93825.34;5123745;28;20096;-75
2022/08/06 06:56:48;;;;;;;17.90;6.65;;;;;;;23.43;47.54;93828.00;5123537;28;20019;-75
2022/08/06 06:59:23;;;;;;;9.50;5.57;;;;;;;23.59;46.61;93821.31;5123544;28;20019;-76
2022/08/06 07:01:49;;;;;;;9.80;5.82;;;;;;;23.62;46.69;93828.69;5123604;28;20019;-76
2022/08/06 07:04:17;;;;;;;10.50;6.07;;;;;;;23.73;47.33;93823.19;5123643;28;20133;-76
2022/08/06 07:06:46;;;;;;;14.40;5.75;;;;;;;23.85;47.04;93824.69;5123565;28;20050;-76
2022/08/06 07:09:22;;;;;;;14.52;5.85;;;;;;;23.93;46.62;93823.47;5123281;28;20030;-76
2022/08/06 07:11:50;;;;;;;14.98;5.18;;;;;;;24.00;46.33;93821.50;5123043;28;20027;-76
2022/08/06 07:14:18;;;;;;;17.17;5.43;;;;;;;24.10;45.58;93819.88;5122615;28;20027;-76
2022/08/06 07:16:44;;;;;;;10.27;5.03;;;;;;;24.22;45.58;93822.13;5123185;28;20070;-76
2022/08/06 07:19:12;;;;;;;16.75;5.07;;;;;;;24.31;44.73;93812.72;5123381;28;20031;-76
2022/08/06 07:21:41;;;;;;;8.43;4.50;;;;;;;24.38;45.07;93824.31;5123383;28;20031;-76
2022/08/06 07:24:08;;;;;;;15.23;5.43;;;;;;;24.53;43.91;93827.72;5123415;28;20023;-76
2022/08/06 07:26:35;;;;;;;11.23;4.50;;;;;;;24.55;44.02;93809.03;5123213;28;20031;-76
2022/08/06 07:29:02;;;;;;;7.95;4.55;;;;;;;24.58;43.28;93815.59;5123009;28;20024;-76
2022/08/06 07:31:28;;;;;;;12.82;4.97;;;;;;;24.63;43.56;93813.22;5123042;28;20039;-76
2022/08/06 07:33:54;;;;;;;15.25;4.97;;;;;;;24.71;44.26;93807.69;5122853;28;20069;-76
2022/08/06 07:36:23;;;;;;;17.42;5.22;;;;;;;24.81;42.91;93799.44;5122808;28;20302;-76
2022/08/06 07:38:52;;;;;;;14.23;5.40;;;;;;;24.79;42.71;93801.00;5123039;28;20036;-76
2022/08/06 07:41:20;;;;;;;7.07;4.70;;;;;;;24.83;42.35;93802.53;5123135;28;20029;-76
2022/08/06 07:43:53;;;;;;;14.90;4.75;;;;;;;24.90;43.69;93798.16;5123357;28;20031;-76
2022/08/06 07:46:22;;;;;;;14.18;4.65;;;;;;;24.99;43.77;93799.25;5122902;28;20043;-76
2022/08/06 07:48:54;;;;;;;10.80;4.80;;;;;;;25.12;42.31;93794.03;5123326;28;20237;-76
2022/08/06 07:51:27;;;;;;;11.65;4.43;;;;;;;25.18;42.18;93799.81;5123034;28;20039;-76
2022/08/06 07:53:53;;;;;;;9.32;4.95;;;;;;;25.25;42.51;93793.50;5123201;28;20027;-77
2022/08/06 07:56:19;;;;;;;12.98;4.63;;;;;;;25.39;43.33;93799.56;5122893;28;20027;-77
2022/08/06 07:58:45;;;;;;;11.80;4.45;;;;;;;25.37;41.52;93796.47;5123102;28;20313;-76
2022/08/06 08:01:11;;;;;;;12.13;4.97;;;;;;;25.45;41.99;93796.38;5123063;28;20031;-76
2022/08/06 08:06:22;;;;;;;8.27;4.45;;;;;;;25.66;41.55;93795.31;5123065;28;20034;-76
2022/08/06 08:09:02;;;;;;;11.07;5.25;;;;;;;25.81;40.50;93793.94;5122900;28;20115;-76
2022/08/06 08:11:28;;;;;;;6.28;3.95;;;;;;;25.89;39.67;93802.78;5122940;28;20023;-76
2022/08/06 08:13:55;;;;;;;5.65;3.80;;;;;;;26.01;39.33;93796.78;5122670;28;20030;-77
2022/08/06 08:16:22;;;;;;;13.50;4.22;;;;;;;26.14;39.67;93794.25;5122919;28;20051;-77
2022/08/06 08:18:48;;;;;;;10.45;4.45;;;;;;;26.30;39.44;93788.16;5122826;28;20047;-77
2022/08/06 08:21:14;;;;;;;8.32;4.38;;;;;;;26.42;39.26;93803.97;5123003;28;20038;-77
2022/08/06 08:23:41;;;;;;;4.88;3.90;;;;;;;26.44;39.17;93796.13;5122739;28;20023;-77
2022/08/06 08:26:07;;;;;;;12.20;4.40;;;;;;;26.53;39.37;93790.88;5124540;28;20073;-76
2022/08/06 08:28:33;;;;;;;8.65;3.67;;;;;;;26.58;38.77;93790.44;5126467;28;20239;-76
2022/08/06 08:31:01;;;;;;;7.10;3.30;;;;;;;26.59;37.11;93796.66;5126424;28;20030;-76
2022/08/06 08:33:27;;;;;;;10.00;4.20;;;;;;;26.73;37.60;93788.22;5126511;28;20321;-76
2022/08/06 08:35:52;;;;;;;15.48;4.28;;;;;;;26.84;37.15;93796.22;5126243;28;20111;-76
2022/08/06 08:38:18;;;;;;;6.63;3.53;;;;;;;27.00;37.06;93787.31;5126379;28;20015;-76
2022/08/06 08:40:44;;;;;;;7.80;3.22;;;;;;;27.14;36.15;93786.28;5126527;28;20035;-76
2022/08/06 08:43:16;;;;;;;9.10;4.57;;;;;;;27.28;34.47;93791.50;5126079;28;20011;-76
2022/08/06 08:45:43;;;;;;;;;;;;;;;27.38;34.65;93800.69;5126432;28;20381;-76
2022/08/06 08:48:10;;;;;;;6.90;2.95;;;;;;;27.46;34.76;93791.13;5126233;28;19979;-76
2022/08/06 08:50:37;;;;;;;4.72;3.03;;;;;;;27.59;34.79;93783.03;5125957;28;20030;-76
2022/08/06 08:53:08;;;;;;;4.78;2.90;;;;;;;27.68;34.30;93785.97;5126074;28;20083;-76
2022/08/06 08:55:34;;;;;;;9.30;3.00;;;;;;;27.79;32.80;93791.97;5125954;28;20062;-77
2022/08/06 08:58:01;;;;;;;6.65;2.75;;;;;;;27.89;33.44;93787.50;5125830;28;20019;-76
2022/08/06 09:00:27;;;;;;;6.25;3.40;;;;;;;27.97;33.29;93785.38;5125887;28;20074;-76
2022/08/06 09:02:53;;;;;;;7.53;3.33;;;;;;;28.07;34.29;93789.81;5125694;27;20031;-76
2022/08/06 09:05:20;;;;;;;11.07;3.75;;;;;;;28.21;32.84;93788.69;5125981;28;20090;-76
2022/08/06 09:07:46;;;;;;;8.45;3.40;;;;;;;28.24;32.57;93790.59;5125886;27;20090;-76
2022/08/06 09:10:12;;;;;;;7.80;2.90;;;;;;;28.29;33.28;93789.31;5125727;27;20091;-76
2022/08/06 09:12:37;;;;;;;7.35;2.83;;;;;;;28.40;33.03;93789.81;5125501;28;20028;-76
2022/08/06 09:15:04;;;;;;;4.00;2.65;;;;;;;28.36;31.42;93783.66;5125679;27;20015;-76
2022/08/06 09:17:30;;;;;;;5.72;2.55;;;;;;;28.49;31.10;93786.47;5125497;28;20111;-75
2022/08/06 09:19:56;;;;;;;5.68;2.85;;;;;;;28.48;31.78;93784.94;5125555;28;20128;-76
2022/08/06 09:22:21;;;;;;;4.03;2.63;;;;;;;28.55;32.07;93780.06;5125649;27;20015;-76
2022/08/06 09:24:46;;;;;;;4.15;2.63;;;;;;;28.61;32.77;93783.81;5125541;28;20039;-76
2022/08/06 09:27:13;;;;;;;7.00;2.50;;;;;;;28.72;31.08;93780.03;5125305;28;20031;-76
2022/08/06 09:29:48;;;;;;;9.05;2.97;;;;;;;28.75;31.07;93777.19;5125360;28;20362;-76
2022/08/06 09:32:40;;;;;;;3.50;2.42;;;;;;;28.92;30.53;93769.72;5125135;28;20028;-76
2022/08/06 09:35:22;;;;;;;6.35;2.97;;;;;;;29.10;30.57;93769.22;5125421;28;20033;-76
2022/08/06 09:37:49;;;;;;;4.97;2.30;;;;;;;29.22;30.70;93765.00;5124746;28;20030;-76
2022/08/06 09:40:17;;;;;;;7.97;3.33;;;;;;;29.34;30.32;93771.72;5125337;27;20026;-76
2022/08/06 09:42:46;;;;;;;5.00;3.00;;;;;;;29.56;30.77;93771.88;5124922;28;20015;-76
2022/08/06 09:45:13;;;;;;;4.47;3.13;;;;;;;29.78;30.48;93770.06;5125227;28;20024;-76
2022/08/06 09:47:39;;;;;;;8.35;3.00;;;;;;;29.95;30.70;93770.72;5124955;28;20325;-76
2022/08/06 09:50:06;;;;;;;4.13;2.95;;;;;;;30.15;30.79;93772.47;5124946;28;20019;-76
2022/08/06 09:52:32;;;;;;;10.23;2.72;;;;;;;30.29;28.71;93771.25;5124706;28;20226;-76
2022/08/06 09:54:58;;;;;;;8.27;3.22;;;;;;;30.32;28.48;93771.13;5124822;28;20086;-76
2022/08/06 09:57:24;;;;;;;8.70;2.88;;;;;;;30.37;29.26;93772.56;5124702;28;20035;-76
2022/08/06 09:59:50;;;;;;;5.43;2.90;;;;;;;30.30;28.66;93764.56;5124994;28;20019;-76
2022/08/06 10:02:18;;;;;;;4.63;2.58;;;;;;;30.35;28.06;93764.00;5124927;28;20339;-76
2022/08/06 10:04:44;;;;;;;4.25;2.53;;;;;;;30.31;27.21;93757.84;5124790;28;20016;-76
2022/08/06 10:07:10;;;;;;;7.20;3.20;;;;;;;30.36;26.92;93751.78;5124815;28;20225;-76
2022/08/06 10:09:39;;;;;;;8.52;2.42;;;;;;;30.40;28.13;93746.94;5124672;28;20015;-76
2022/08/06 10:12:21;;;;;;;9.77;3.05;;;;;;;30.49;28.68;93749.78;5124030;28;20043;-76
2022/08/06 10:14:47;;;;;;;9.77;3.05;;;;;;;30.66;28.72;93749.63;5124768;28;20028;-76
2022/08/06 10:17:15;;;;;;;4.95;2.67;;;;;;;30.86;28.08;93747.34;5124290;28;20061;-77
2022/08/06 10:19:48;;;;;;;9.32;4.03;;;;;;;31.12;27.28;93742.53;5124331;28;20405;-77
2022/08/06 10:22:16;;;;;;;2.95;2.15;;;;;;;31.19;26.34;93749.75;5124097;28;20187;-76
2022/08/06 10:24:45;;;;;;;4.85;2.90;;;;;;;31.36;27.41;93751.06;5124119;28;20031;-76
2022/08/06 10:27:13;;;;;;;10.18;2.63;;;;;;;31.61;27.00;93748.63;5124206;28;20359;-76
2022/08/06 10:29:43;;;;;;;3.95;2.80;;;;;;;31.82;26.80;93741.53;5124269;28;20042;-76
2022/08/06 10:32:15;;;;;;;6.75;2.92;;;;;;;32.02;26.65;93741.94;5123972;28;20023;-76
2022/08/06 10:34:44;;;;;;;;;;;;;;;32.10;25.21;93737.69;5123365;28;20034;-76
2022/08/06 10:37:11;;;;;;;3.97;2.33;;;;;;;31.94;25.77;93738.69;5123810;28;20165;-76
2022/08/06 10:39:42;;;;;;;5.90;2.90;;;;;;;31.99;26.79;93731.78;5123843;28;20020;-76
2022/08/06 10:42:09;;;;;;;4.68;2.78;;;;;;;32.02;26.26;93733.69;5122538;28;20252;-76
2022/08/06 10:44:35;;;;;;;9.40;2.47;;;;;;;32.15;26.12;93739.06;5123603;28;20024;-76
2022/08/06 10:47:01;;;;;;;12.48;2.35;;;;;;;32.34;26.20;93726.09;5122423;28;20336;-75
2022/08/06 10:49:27;;;;;;;6.00;2.63;;;;;;;32.50;24.79;93730.56;5122461;28;20125;-75
2022/08/06 10:51:54;;;;;;;3.15;2.35;;;;;;;32.37;25.72;93725.94;5123408;28;20035;-75
2022/08/06 10:54:20;;;;;;;4.35;2.67;;;;;;;32.54;24.63;93723.69;5123644;28;20034;-75
2022/08/06 10:56:46;;;;;;;4.63;2.38;;;;;;;32.68;24.71;93724.31;5123489;28;20027;-75
2022/08/06 10:59:13;;;;;;;4.20;2.95;;;;;;;32.66;24.59;93730.28;5123517;28;20135;-75
2022/08/06 11:01:51;;;;;;;6.55;3.08;;;;;;;32.52;24.62;93723.34;5123431;28;20019;-75
2022/08/06 11:04:53;;;;;;;7.15;2.90;;;;;;;32.56;24.11;93731.50;5123504;28;20061;-76
2022/08/06 11:07:39;;;;;;;5.80;3.05;;;;;;;32.43;24.13;93728.09;5123832;28;20015;-75
2022/08/06 11:10:33;;;;;;;8.02;2.30;;;;;;;32.26;22.68;93719.31;5123490;28;20047;-76
2022/08/06 11:13:23;;;;;;;4.82;2.20;;;;;;;32.21;25.50;93708.91;5123588;28;20076;-76
2022/08/06 11:15:49;;;;;;;6.18;2.47;;;;;;;32.27;23.88;93723.63;5123527;28;20094;-76
2022/08/06 11:18:15;;;;;;;3.40;2.50;;;;;;;32.23;23.69;93706.47;5123395;28;20050;-76
2022/08/06 11:20:42;;;;;;;5.28;2.60;;;;;;;32.29;24.49;93712.91;5123388;28;20027;-76
2022/08/06 11:23:11;;;;;;;5.13;2.63;;;;;;;32.43;25.13;93717.06;5123305;28;20033;-76
2022/08/06 11:25:46;;;;;;;7.35;2.45;;;;;;;32.48;24.76;93714.44;5123016;28;20318;-76
2022/08/06 11:28:13;;;;;;;4.07;2.75;;;;;;;32.53;24.85;93716.63;5123184;28;20036;-76
2022/08/06 11:30:53;;;;;;;5.88;2.28;;;;;;;32.64;24.27;93712.66;5123406;28;20039;-76
2022/08/06 11:33:20;;;;;;;4.72;2.80;;;;;;;32.65;24.77;93719.69;5123276;28;20036;-76
2022/08/06 11:35:48;;;;;;;6.22;2.90;;;;;;;32.68;25.00;93713.28;5123350;28;20027;-76
2022/08/06 11:38:42;;;;;;;9.68;2.35;;;;;;;32.67;23.72;93711.72;5123222;28;20027;-76
2022/08/06 11:41:10;;;;;;;4.57;2.38;;;;;;;32.48;23.93;93717.22;5123105;28;20027;-76
2022/08/06 11:43:49;;;;;;;6.25;2.92;;;;;;;32.23;24.26;93709.22;5123124;28;20065;-76
2022/08/06 11:46:27;;;;;;;12.73;3.25;;;;;;;31.96;24.58;93711.44;5123275;28;20137;-76
2022/08/06 11:49:20;;;;;;;4.78;2.92;;;;;;;31.77;25.57;93713.38;5123339;28;20199;-76